sensor_id;sensor_type;location;lat;lon;timestamp;temperature;humidity
13223;DHT22;6676;45.192;5.722;2023-05-21T00:00:05;14.70;99.90
13223;DHT22;6676;45.192;5.722;2023-05-21T00:03:01;14.70;99.90
13223;DHT22;6676;45.192;5.722;2023-05-21T00:05:52;14.50;99.90
13223;DHT22;6676;45.192;5.722;2023-05-21T00:08:44;14.50;99.90
13223;DHT22;6676;45.192;5.722;2023-05-21T00:11:35;14.40;99.90
13223;DHT22;6676;45.192;5.722;2023-05-21T00:14:27;14.40;99.90
13223;DHT22;6676;45.192;5.722;2023-05-21T00:17:18;14.50;99.90
13223;DHT22;6676;45.192;5.722;2023-05-21T00:20:11;14.50;99.90
13223;DHT22;6676;45.192;5.722;2023-05-21T00:23:02;14.50;99.90
13223;DHT22;6676;45.192;5.722;2023-05-21T00:25:54;14.50;99.90
13223;DHT22;6676;45.192;5.722;2023-05-21T00:28:45;14.50;99.90
13223;DHT22;6676;45.192;5.722;2023-05-21T00:31:37;14.40;99.90
13223;DHT22;6676;45.192;5.722;2023-05-21T00:34:28;14.40;99.90
13223;DHT22;6676;45.192;5.722;2023-05-21T00:37:19;14.40;99.90
13223;DHT22;6676;45.192;5.722;2023-05-21T00:40:12;14.40;99.90
13223;DHT22;6676;45.192;5.722;2023-05-21T00:43:04;14.40;99.90
13223;DHT22;6676;45.192;5.722;2023-05-21T00:45:57;14.50;99.90
13223;DHT22;6676;45.192;5.722;2023-05-21T00:48:51;14.60;99.90
13223;DHT22;6676;45.192;5.722;2023-05-21T00:51:42;14.50;99.90
13223;DHT22;6676;45.192;5.722;2023-05-21T00:54:33;14.50;99.90
13223;DHT22;6676;45.192;5.722;2023-05-21T00:57:26;14.50;99.90
13223;DHT22;6676;45.192;5.722;2023-05-21T01:00:17;14.40;99.90
13223;DHT22;6676;45.192;5.722;2023-05-21T01:03:10;14.40;99.90
13223;DHT22;6676;45.192;5.722;2023-05-21T01:06:03;14.50;99.90
13223;DHT22;6676;45.192;5.722;2023-05-21T01:08:55;14.50;99.90
13223;DHT22;6676;45.192;5.722;2023-05-21T01:11:47;14.50;99.90
13223;DHT22;6676;45.192;5.722;2023-05-21T01:14:41;14.50;99.90
13223;DHT22;6676;45.192;5.722;2023-05-21T01:17:32;14.50;99.90
13223;DHT22;6676;45.192;5.722;2023-05-21T01:20:24;14.40;99.90
13223;DHT22;6676;45.192;5.722;2023-05-21T01:23:17;14.40;99.90
13223;DHT22;6676;45.192;5.722;2023-05-21T01:26:09;14.40;99.90
13223;DHT22;6676;45.192;5.722;2023-05-21T01:29:05;14.40;99.90
13223;DHT22;6676;45.192;5.722;2023-05-21T01:32:01;14.40;99.90
13223;DHT22;6676;45.192;5.722;2023-05-21T01:34:58;14.30;99.90
13223;DHT22;6676;45.192;5.722;2023-05-21T01:37:54;14.40;99.90
13223;DHT22;6676;45.192;5.722;2023-05-21T01:40:50;14.40;99.90
13223;DHT22;6676;45.192;5.722;2023-05-21T01:43:44;14.30;99.90
13223;DHT22;6676;45.192;5.722;2023-05-21T01:46:36;14.30;99.90
13223;DHT22;6676;45.192;5.722;2023-05-21T01:49:29;14.40;99.90
13223;DHT22;6676;45.192;5.722;2023-05-21T01:52:20;14.40;99.90
13223;DHT22;6676;45.192;5.722;2023-05-21T01:55:12;14.40;99.90
13223;DHT22;6676;45.192;5.722;2023-05-21T01:58:03;14.30;99.90
13223;DHT22;6676;45.192;5.722;2023-05-21T02:00:59;14.20;99.90
13223;DHT22;6676;45.192;5.722;2023-05-21T02:03:51;14.30;99.90
13223;DHT22;6676;45.192;5.722;2023-05-21T02:06:43;14.20;99.90
13223;DHT22;6676;45.192;5.722;2023-05-21T02:09:34;14.10;99.90
13223;DHT22;6676;45.192;5.722;2023-05-21T02:12:26;14.00;99.90
13223;DHT22;6676;45.192;5.722;2023-05-21T02:15:19;14.00;99.90
13223;DHT22;6676;45.192;5.722;2023-05-21T02:18:11;14.10;99.90
13223;DHT22;6676;45.192;5.722;2023-05-21T02:21:06;14.10;99.90
13223;DHT22;6676;45.192;5.722;2023-05-21T02:23:57;14.10;99.90
13223;DHT22;6676;45.192;5.722;2023-05-21T02:26:49;14.20;99.90
13223;DHT22;6676;45.192;5.722;2023-05-21T02:29:41;14.20;99.90
13223;DHT22;6676;45.192;5.722;2023-05-21T02:32:33;14.20;99.90
13223;DHT22;6676;45.192;5.722;2023-05-21T02:35:25;14.20;99.90
13223;DHT22;6676;45.192;5.722;2023-05-21T02:38:16;14.20;99.90
13223;DHT22;6676;45.192;5.722;2023-05-21T02:41:10;14.20;99.90
13223;DHT22;6676;45.192;5.722;2023-05-21T02:44:02;14.30;99.90
13223;DHT22;6676;45.192;5.722;2023-05-21T02:46:54;14.20;99.90
13223;DHT22;6676;45.192;5.722;2023-05-21T02:49:45;14.20;99.90
13223;DHT22;6676;45.192;5.722;2023-05-21T02:52:38;14.20;99.90
13223;DHT22;6676;45.192;5.722;2023-05-21T02:55:30;14.20;99.90
13223;DHT22;6676;45.192;5.722;2023-05-21T02:58:23;14.20;99.90
13223;DHT22;6676;45.192;5.722;2023-05-21T03:01:14;14.20;99.90
13223;DHT22;6676;45.192;5.722;2023-05-21T03:04:06;14.20;99.90
13223;DHT22;6676;45.192;5.722;2023-05-21T03:06:58;14.30;99.90
13223;DHT22;6676;45.192;5.722;2023-05-21T03:09:52;14.20;99.90
13223;DHT22;6676;45.192;5.722;2023-05-21T03:12:43;14.10;99.90
13223;DHT22;6676;45.192;5.722;2023-05-21T03:15:35;14.10;99.90
13223;DHT22;6676;45.192;5.722;2023-05-21T03:18:30;14.10;99.90
13223;DHT22;6676;45.192;5.722;2023-05-21T03:21:21;14.00;99.90
13223;DHT22;6676;45.192;5.722;2023-05-21T03:24:12;14.00;99.90
13223;DHT22;6676;45.192;5.722;2023-05-21T03:27:04;14.00;99.90
13223;DHT22;6676;45.192;5.722;2023-05-21T03:29:56;14.10;99.90
13223;DHT22;6676;45.192;5.722;2023-05-21T03:32:48;14.10;99.90
13223;DHT22;6676;45.192;5.722;2023-05-21T03:35:40;14.10;99.90
13223;DHT22;6676;45.192;5.722;2023-05-21T03:38:31;14.10;99.90
13223;DHT22;6676;45.192;5.722;2023-05-21T03:41:25;14.00;99.90
13223;DHT22;6676;45.192;5.722;2023-05-21T03:44:18;14.10;99.90
13223;DHT22;6676;45.192;5.722;2023-05-21T03:47:14;14.00;99.90
13223;DHT22;6676;45.192;5.722;2023-05-21T03:50:08;14.00;99.90
13223;DHT22;6676;45.192;5.722;2023-05-21T03:53:01;14.10;99.90
13223;DHT22;6676;45.192;5.722;2023-05-21T03:55:53;14.00;99.90
13223;DHT22;6676;45.192;5.722;2023-05-21T03:58:48;13.90;99.90
13223;DHT22;6676;45.192;5.722;2023-05-21T04:01:40;13.90;99.90
13223;DHT22;6676;45.192;5.722;2023-05-21T04:04:33;14.00;99.90
13223;DHT22;6676;45.192;5.722;2023-05-21T04:07:27;14.00;99.90
13223;DHT22;6676;45.192;5.722;2023-05-21T04:10:21;13.90;99.90
13223;DHT22;6676;45.192;5.722;2023-05-21T04:13:13;14.00;99.90
13223;DHT22;6676;45.192;5.722;2023-05-21T04:16:05;14.00;99.90
13223;DHT22;6676;45.192;5.722;2023-05-21T04:18:58;13.90;99.90
13223;DHT22;6676;45.192;5.722;2023-05-21T04:21:50;13.80;99.90
13223;DHT22;6676;45.192;5.722;2023-05-21T04:24:42;13.80;99.90
13223;DHT22;6676;45.192;5.722;2023-05-21T04:27:36;13.90;99.90
13223;DHT22;6676;45.192;5.722;2023-05-21T04:30:29;13.90;99.90
13223;DHT22;6676;45.192;5.722;2023-05-21T04:33:21;13.90;99.90
13223;DHT22;6676;45.192;5.722;2023-05-21T04:36:13;14.00;99.90
13223;DHT22;6676;45.192;5.722;2023-05-21T04:39:06;14.00;99.90
13223;DHT22;6676;45.192;5.722;2023-05-21T04:41:57;14.00;99.90
13223;DHT22;6676;45.192;5.722;2023-05-21T04:44:50;14.00;99.90
13223;DHT22;6676;45.192;5.722;2023-05-21T04:47:44;14.00;99.90
13223;DHT22;6676;45.192;5.722;2023-05-21T04:50:35;14.00;99.90
13223;DHT22;6676;45.192;5.722;2023-05-21T04:53:27;13.90;99.90
13223;DHT22;6676;45.192;5.722;2023-05-21T04:56:20;13.80;99.90
13223;DHT22;6676;45.192;5.722;2023-05-21T04:59:12;13.80;99.90
13223;DHT22;6676;45.192;5.722;2023-05-21T05:02:04;13.80;99.90
13223;DHT22;6676;45.192;5.722;2023-05-21T05:04:55;13.80;99.90
13223;DHT22;6676;45.192;5.722;2023-05-21T05:07:48;13.70;99.90
13223;DHT22;6676;45.192;5.722;2023-05-21T05:10:40;13.70;99.90
13223;DHT22;6676;45.192;5.722;2023-05-21T05:13:32;13.70;99.90
13223;DHT22;6676;45.192;5.722;2023-05-21T05:16:24;13.70;99.90
13223;DHT22;6676;45.192;5.722;2023-05-21T05:19:17;13.80;99.90
13223;DHT22;6676;45.192;5.722;2023-05-21T05:22:09;13.80;99.90
13223;DHT22;6676;45.192;5.722;2023-05-21T05:25:07;13.90;99.90
13223;DHT22;6676;45.192;5.722;2023-05-21T05:27:58;13.90;99.90
13223;DHT22;6676;45.192;5.722;2023-05-21T05:30:50;14.00;99.90
13223;DHT22;6676;45.192;5.722;2023-05-21T05:33:43;14.10;99.90
13223;DHT22;6676;45.192;5.722;2023-05-21T05:36:34;14.10;99.90
13223;DHT22;6676;45.192;5.722;2023-05-21T05:39:29;14.20;99.90
13223;DHT22;6676;45.192;5.722;2023-05-21T05:42:21;14.20;99.90
13223;DHT22;6676;45.192;5.722;2023-05-21T05:45:13;14.20;99.90
13223;DHT22;6676;45.192;5.722;2023-05-21T05:48:05;14.20;99.90
13223;DHT22;6676;45.192;5.722;2023-05-21T05:50:59;14.20;99.90
13223;DHT22;6676;45.192;5.722;2023-05-21T05:53:55;14.20;99.90
13223;DHT22;6676;45.192;5.722;2023-05-21T05:56:47;14.30;99.90
13223;DHT22;6676;45.192;5.722;2023-05-21T05:59:39;14.40;99.90
13223;DHT22;6676;45.192;5.722;2023-05-21T06:02:32;14.30;99.90
13223;DHT22;6676;45.192;5.722;2023-05-21T06:05:23;14.30;99.90
13223;DHT22;6676;45.192;5.722;2023-05-21T06:08:15;14.40;99.90
13223;DHT22;6676;45.192;5.722;2023-05-21T06:11:06;14.40;99.90
13223;DHT22;6676;45.192;5.722;2023-05-21T06:13:58;14.40;99.90
13223;DHT22;6676;45.192;5.722;2023-05-21T06:16:50;14.40;99.90
13223;DHT22;6676;45.192;5.722;2023-05-21T06:22:22;14.60;99.90
13223;DHT22;6676;45.192;5.722;2023-05-21T06:25:14;14.60;99.90
13223;DHT22;6676;45.192;5.722;2023-05-21T06:28:06;14.60;99.90
13223;DHT22;6676;45.192;5.722;2023-05-21T06:30:59;14.70;99.90
13223;DHT22;6676;45.192;5.722;2023-05-21T06:33:52;14.70;99.90
13223;DHT22;6676;45.192;5.722;2023-05-21T06:36:44;14.70;99.90
13223;DHT22;6676;45.192;5.722;2023-05-21T06:39:35;14.60;99.90
13223;DHT22;6676;45.192;5.722;2023-05-21T06:42:27;14.60;99.90
13223;DHT22;6676;45.192;5.722;2023-05-21T06:45:37;14.60;99.90
13223;DHT22;6676;45.192;5.722;2023-05-21T06:48:30;14.60;99.90
13223;DHT22;6676;45.192;5.722;2023-05-21T06:51:21;14.70;99.90
13223;DHT22;6676;45.192;5.722;2023-05-21T06:54:13;14.80;99.90
13223;DHT22;6676;45.192;5.722;2023-05-21T06:57:05;14.90;99.90
13223;DHT22;6676;45.192;5.722;2023-05-21T06:59:56;15.00;99.90
13223;DHT22;6676;45.192;5.722;2023-05-21T07:02:48;15.10;99.90
13223;DHT22;6676;45.192;5.722;2023-05-21T07:05:40;15.10;99.90
13223;DHT22;6676;45.192;5.722;2023-05-21T07:08:31;15.20;99.90
13223;DHT22;6676;45.192;5.722;2023-05-21T07:11:23;15.40;99.90
13223;DHT22;6676;45.192;5.722;2023-05-21T07:14:17;15.50;99.90
13223;DHT22;6676;45.192;5.722;2023-05-21T07:17:08;15.50;99.90
13223;DHT22;6676;45.192;5.722;2023-05-21T07:20:03;15.50;99.90
13223;DHT22;6676;45.192;5.722;2023-05-21T07:22:57;15.50;99.90
13223;DHT22;6676;45.192;5.722;2023-05-21T07:25:49;15.60;99.90
13223;DHT22;6676;45.192;5.722;2023-05-21T07:28:41;15.80;99.90
13223;DHT22;6676;45.192;5.722;2023-05-21T07:31:33;15.90;99.90
13223;DHT22;6676;45.192;5.722;2023-05-21T07:34:25;15.90;99.90
13223;DHT22;6676;45.192;5.722;2023-05-21T07:37:20;16.00;99.90
13223;DHT22;6676;45.192;5.722;2023-05-21T07:42:55;16.10;99.90
13223;DHT22;6676;45.192;5.722;2023-05-21T07:45:48;16.10;99.90
13223;DHT22;6676;45.192;5.722;2023-05-21T07:48:39;16.10;99.90
13223;DHT22;6676;45.192;5.722;2023-05-21T07:51:33;16.10;99.90
13223;DHT22;6676;45.192;5.722;2023-05-21T07:54:25;16.00;99.90
13223;DHT22;6676;45.192;5.722;2023-05-21T07:59:56;16.20;99.90
13223;DHT22;6676;45.192;5.722;2023-05-21T08:02:47;16.20;99.90
13223;DHT22;6676;45.192;5.722;2023-05-21T08:08:18;16.10;99.90
13223;DHT22;6676;45.192;5.722;2023-05-21T08:11:12;16.10;99.90
13223;DHT22;6676;45.192;5.722;2023-05-21T08:14:05;16.10;99.90
13223;DHT22;6676;45.192;5.722;2023-05-21T08:16:56;16.10;99.90
13223;DHT22;6676;45.192;5.722;2023-05-21T08:19:48;16.10;99.90
13223;DHT22;6676;45.192;5.722;2023-05-21T08:22:40;16.20;99.90
13223;DHT22;6676;45.192;5.722;2023-05-21T08:25:32;16.30;99.90
13223;DHT22;6676;45.192;5.722;2023-05-21T08:28:26;16.40;99.90
13223;DHT22;6676;45.192;5.722;2023-05-21T08:31:19;16.50;99.90
13223;DHT22;6676;45.192;5.722;2023-05-21T08:34:12;16.50;99.90
13223;DHT22;6676;45.192;5.722;2023-05-21T08:37:05;16.60;99.90
13223;DHT22;6676;45.192;5.722;2023-05-21T08:40:14;16.70;99.90
13223;DHT22;6676;45.192;5.722;2023-05-21T08:43:06;16.70;99.90
13223;DHT22;6676;45.192;5.722;2023-05-21T08:46:02;16.70;99.90
13223;DHT22;6676;45.192;5.722;2023-05-21T08:48:56;16.60;99.90
13223;DHT22;6676;45.192;5.722;2023-05-21T08:51:49;16.80;99.90
13223;DHT22;6676;45.192;5.722;2023-05-21T08:54:41;16.70;99.90
13223;DHT22;6676;45.192;5.722;2023-05-21T09:00:16;16.80;99.90
13223;DHT22;6676;45.192;5.722;2023-05-21T09:03:11;17.00;99.90
13223;DHT22;6676;45.192;5.722;2023-05-21T09:06:04;17.10;99.90
13223;DHT22;6676;45.192;5.722;2023-05-21T09:09:01;17.20;99.90
13223;DHT22;6676;45.192;5.722;2023-05-21T09:11:53;17.20;99.90
13223;DHT22;6676;45.192;5.722;2023-05-21T09:14:49;17.30;99.90
13223;DHT22;6676;45.192;5.722;2023-05-21T09:17:44;17.30;99.90
13223;DHT22;6676;45.192;5.722;2023-05-21T09:20:41;17.20;99.90
13223;DHT22;6676;45.192;5.722;2023-05-21T09:23:34;17.20;99.90
13223;DHT22;6676;45.192;5.722;2023-05-21T09:26:26;17.30;99.90
13223;DHT22;6676;45.192;5.722;2023-05-21T09:29:19;17.40;99.90
13223;DHT22;6676;45.192;5.722;2023-05-21T09:32:10;17.50;99.90
13223;DHT22;6676;45.192;5.722;2023-05-21T09:35:08;17.50;99.90
13223;DHT22;6676;45.192;5.722;2023-05-21T09:37:59;17.50;99.90
13223;DHT22;6676;45.192;5.722;2023-05-21T09:40:52;17.50;99.90
13223;DHT22;6676;45.192;5.722;2023-05-21T09:43:45;17.70;99.90
13223;DHT22;6676;45.192;5.722;2023-05-21T09:46:41;17.60;99.90
13223;DHT22;6676;45.192;5.722;2023-05-21T09:49:32;17.50;99.90
13223;DHT22;6676;45.192;5.722;2023-05-21T09:52:24;17.50;99.90
13223;DHT22;6676;45.192;5.722;2023-05-21T09:55:20;17.50;99.90
13223;DHT22;6676;45.192;5.722;2023-05-21T09:58:12;17.60;99.90
13223;DHT22;6676;45.192;5.722;2023-05-21T10:01:03;17.70;99.90
13223;DHT22;6676;45.192;5.722;2023-05-21T10:03:56;17.80;99.90
13223;DHT22;6676;45.192;5.722;2023-05-21T10:06:51;17.90;99.90
13223;DHT22;6676;45.192;5.722;2023-05-21T10:09:42;17.90;99.90
13223;DHT22;6676;45.192;5.722;2023-05-21T10:12:35;18.00;99.90
13223;DHT22;6676;45.192;5.722;2023-05-21T10:15:29;18.00;99.90
13223;DHT22;6676;45.192;5.722;2023-05-21T10:18:22;18.00;99.90
13223;DHT22;6676;45.192;5.722;2023-05-21T10:21:14;18.10;99.90
13223;DHT22;6676;45.192;5.722;2023-05-21T10:24:06;18.00;99.90
13223;DHT22;6676;45.192;5.722;2023-05-21T10:26:58;18.10;99.90
13223;DHT22;6676;45.192;5.722;2023-05-21T10:29:51;18.10;99.90
13223;DHT22;6676;45.192;5.722;2023-05-21T10:32:44;17.90;99.90
13223;DHT22;6676;45.192;5.722;2023-05-21T10:35:38;17.90;99.90
13223;DHT22;6676;45.192;5.722;2023-05-21T10:38:32;17.90;99.90
13223;DHT22;6676;45.192;5.722;2023-05-21T10:41:23;17.80;99.90
13223;DHT22;6676;45.192;5.722;2023-05-21T10:44:20;17.80;99.90
13223;DHT22;6676;45.192;5.722;2023-05-21T10:47:38;17.80;99.90
13223;DHT22;6676;45.192;5.722;2023-05-21T10:50:39;17.80;99.90
13223;DHT22;6676;45.192;5.722;2023-05-21T10:53:36;17.90;99.90
13223;DHT22;6676;45.192;5.722;2023-05-21T10:56:31;17.90;99.90
13223;DHT22;6676;45.192;5.722;2023-05-21T10:59:31;17.90;99.90
13223;DHT22;6676;45.192;5.722;2023-05-21T11:02:25;17.90;99.90
13223;DHT22;6676;45.192;5.722;2023-05-21T11:05:34;17.90;99.90
13223;DHT22;6676;45.192;5.722;2023-05-21T11:08:28;18.10;99.90
13223;DHT22;6676;45.192;5.722;2023-05-21T11:11:41;18.20;99.90
13223;DHT22;6676;45.192;5.722;2023-05-21T11:14:35;18.30;99.90
13223;DHT22;6676;45.192;5.722;2023-05-21T11:17:39;18.30;99.90
13223;DHT22;6676;45.192;5.722;2023-05-21T11:20:34;18.40;99.90
13223;DHT22;6676;45.192;5.722;2023-05-21T11:23:34;18.40;99.90
13223;DHT22;6676;45.192;5.722;2023-05-21T11:26:31;18.60;99.90
13223;DHT22;6676;45.192;5.722;2023-05-21T11:29:27;18.70;99.90
13223;DHT22;6676;45.192;5.722;2023-05-21T11:32:21;18.80;99.90
13223;DHT22;6676;45.192;5.722;2023-05-21T11:35:14;18.90;99.90
13223;DHT22;6676;45.192;5.722;2023-05-21T11:38:08;19.00;99.90
13223;DHT22;6676;45.192;5.722;2023-05-21T11:41:03;19.00;99.90
13223;DHT22;6676;45.192;5.722;2023-05-21T11:44:01;19.10;99.90
13223;DHT22;6676;45.192;5.722;2023-05-21T11:46:52;19.20;99.90
13223;DHT22;6676;45.192;5.722;2023-05-21T11:49:45;19.10;99.90
13223;DHT22;6676;45.192;5.722;2023-05-21T11:52:38;19.20;99.90
13223;DHT22;6676;45.192;5.722;2023-05-21T11:55:30;19.20;99.90
13223;DHT22;6676;45.192;5.722;2023-05-21T11:58:22;19.20;99.90
13223;DHT22;6676;45.192;5.722;2023-05-21T12:01:22;19.40;99.90
13223;DHT22;6676;45.192;5.722;2023-05-21T12:04:13;19.60;99.90
13223;DHT22;6676;45.192;5.722;2023-05-21T12:07:05;19.90;99.90
13223;DHT22;6676;45.192;5.722;2023-05-21T12:09:57;20.10;99.90
13223;DHT22;6676;45.192;5.722;2023-05-21T12:12:48;20.40;99.90
13223;DHT22;6676;45.192;5.722;2023-05-21T12:15:41;20.30;99.90
13223;DHT22;6676;45.192;5.722;2023-05-21T12:18:32;20.50;99.90
13223;DHT22;6676;45.192;5.722;2023-05-21T12:21:26;20.80;99.90
13223;DHT22;6676;45.192;5.722;2023-05-21T12:24:18;21.00;99.90
13223;DHT22;6676;45.192;5.722;2023-05-21T12:27:10;21.10;99.90
13223;DHT22;6676;45.192;5.722;2023-05-21T12:30:03;21.30;99.90
13223;DHT22;6676;45.192;5.722;2023-05-21T12:32:57;21.30;99.90
13223;DHT22;6676;45.192;5.722;2023-05-21T12:35:51;21.40;99.90
13223;DHT22;6676;45.192;5.722;2023-05-21T12:38:43;21.20;99.90
13223;DHT22;6676;45.192;5.722;2023-05-21T12:41:36;20.90;99.90
13223;DHT22;6676;45.192;5.722;2023-05-21T12:44:30;20.70;99.90
13223;DHT22;6676;45.192;5.722;2023-05-21T12:47:24;20.60;99.90
13223;DHT22;6676;45.192;5.722;2023-05-21T12:50:18;20.90;99.90
13223;DHT22;6676;45.192;5.722;2023-05-21T12:53:10;21.30;99.90
13223;DHT22;6676;45.192;5.722;2023-05-21T12:56:09;21.60;99.90
13223;DHT22;6676;45.192;5.722;2023-05-21T12:59:00;21.80;99.90
13223;DHT22;6676;45.192;5.722;2023-05-21T13:01:52;22.00;99.90
13223;DHT22;6676;45.192;5.722;2023-05-21T13:04:44;22.00;99.90
13223;DHT22;6676;45.192;5.722;2023-05-21T13:07:37;22.10;99.90
13223;DHT22;6676;45.192;5.722;2023-05-21T13:10:30;22.10;99.90
13223;DHT22;6676;45.192;5.722;2023-05-21T13:13:21;22.30;99.90
13223;DHT22;6676;45.192;5.722;2023-05-21T13:16:13;22.50;99.90
13223;DHT22;6676;45.192;5.722;2023-05-21T13:19:05;22.50;99.90
13223;DHT22;6676;45.192;5.722;2023-05-21T13:21:56;22.60;99.90
13223;DHT22;6676;45.192;5.722;2023-05-21T13:24:48;22.40;99.90
13223;DHT22;6676;45.192;5.722;2023-05-21T13:27:39;22.40;99.90
13223;DHT22;6676;45.192;5.722;2023-05-21T13:30:31;22.20;99.90
13223;DHT22;6676;45.192;5.722;2023-05-21T13:33:24;22.10;99.90
13223;DHT22;6676;45.192;5.722;2023-05-21T13:36:15;22.20;99.90
13223;DHT22;6676;45.192;5.722;2023-05-21T13:39:07;22.30;99.90
13223;DHT22;6676;45.192;5.722;2023-05-21T13:41:59;22.30;99.90
13223;DHT22;6676;45.192;5.722;2023-05-21T13:44:51;22.30;99.90
13223;DHT22;6676;45.192;5.722;2023-05-21T13:47:44;22.30;99.90
13223;DHT22;6676;45.192;5.722;2023-05-21T13:50:37;22.40;99.90
13223;DHT22;6676;45.192;5.722;2023-05-21T13:53:28;22.30;99.90
13223;DHT22;6676;45.192;5.722;2023-05-21T13:56:20;22.60;99.90
13223;DHT22;6676;45.192;5.722;2023-05-21T13:59:12;22.90;99.90
13223;DHT22;6676;45.192;5.722;2023-05-21T14:02:04;22.80;99.90
13223;DHT22;6676;45.192;5.722;2023-05-21T14:04:55;22.80;99.90
13223;DHT22;6676;45.192;5.722;2023-05-21T14:07:47;22.90;99.90
13223;DHT22;6676;45.192;5.722;2023-05-21T14:10:40;22.80;99.90
13223;DHT22;6676;45.192;5.722;2023-05-21T14:13:32;23.00;99.90
13223;DHT22;6676;45.192;5.722;2023-05-21T14:19:04;23.10;99.90
13223;DHT22;6676;45.192;5.722;2023-05-21T14:21:55;23.10;99.90
13223;DHT22;6676;45.192;5.722;2023-05-21T14:24:48;23.40;99.90
13223;DHT22;6676;45.192;5.722;2023-05-21T14:30:19;23.80;99.90
13223;DHT22;6676;45.192;5.722;2023-05-21T14:33:11;23.60;99.90
13223;DHT22;6676;45.192;5.722;2023-05-21T14:38:41;23.30;99.90
13223;DHT22;6676;45.192;5.722;2023-05-21T14:44:12;23.20;99.90
13223;DHT22;6676;45.192;5.722;2023-05-21T14:49:41;23.20;99.90
13223;DHT22;6676;45.192;5.722;2023-05-21T14:52:35;23.40;99.90
13223;DHT22;6676;45.192;5.722;2023-05-21T14:58:06;23.40;99.90
13223;DHT22;6676;45.192;5.722;2023-05-21T15:00:57;23.50;99.90
13223;DHT22;6676;45.192;5.722;2023-05-21T15:03:49;23.10;99.90
13223;DHT22;6676;45.192;5.722;2023-05-21T15:06:41;22.80;99.90
13223;DHT22;6676;45.192;5.722;2023-05-21T15:09:32;23.10;99.90
13223;DHT22;6676;45.192;5.722;2023-05-21T15:12:24;23.10;99.90
13223;DHT22;6676;45.192;5.722;2023-05-21T15:15:16;23.00;99.90
13223;DHT22;6676;45.192;5.722;2023-05-21T15:18:09;23.00;99.90
13223;DHT22;6676;45.192;5.722;2023-05-21T15:21:01;22.90;99.90
13223;DHT22;6676;45.192;5.722;2023-05-21T15:23:52;23.00;99.90
13223;DHT22;6676;45.192;5.722;2023-05-21T15:26:44;23.10;99.90
13223;DHT22;6676;45.192;5.722;2023-05-21T15:29:35;23.00;99.90
13223;DHT22;6676;45.192;5.722;2023-05-21T15:32:26;23.30;99.90
13223;DHT22;6676;45.192;5.722;2023-05-21T15:35:18;23.80;99.90
13223;DHT22;6676;45.192;5.722;2023-05-21T15:38:10;23.90;99.90
13223;DHT22;6676;45.192;5.722;2023-05-21T15:41:01;24.00;99.90
13223;DHT22;6676;45.192;5.722;2023-05-21T15:43:53;24.30;99.90
13223;DHT22;6676;45.192;5.722;2023-05-21T15:46:45;24.90;99.90
13223;DHT22;6676;45.192;5.722;2023-05-21T15:49:38;25.70;99.90
13223;DHT22;6676;45.192;5.722;2023-05-21T15:52:29;26.30;99.90
13223;DHT22;6676;45.192;5.722;2023-05-21T15:55:21;26.70;99.90
13223;DHT22;6676;45.192;5.722;2023-05-21T16:00:52;29.50;99.90
13223;DHT22;6676;45.192;5.722;2023-05-21T16:06:23;28.10;99.90
13223;DHT22;6676;45.192;5.722;2023-05-21T16:09:17;27.60;99.90
13223;DHT22;6676;45.192;5.722;2023-05-21T16:12:08;27.60;99.90
13223;DHT22;6676;45.192;5.722;2023-05-21T16:15:00;27.80;99.90
13223;DHT22;6676;45.192;5.722;2023-05-21T16:17:51;27.60;99.90
13223;DHT22;6676;45.192;5.722;2023-05-21T16:23:23;27.20;99.90
13223;DHT22;6676;45.192;5.722;2023-05-21T16:26:17;26.90;99.90
13223;DHT22;6676;45.192;5.722;2023-05-21T16:29:08;27.10;99.90
13223;DHT22;6676;45.192;5.722;2023-05-21T16:32:00;26.40;99.90
13223;DHT22;6676;45.192;5.722;2023-05-21T16:34:51;26.50;99.90
13223;DHT22;6676;45.192;5.722;2023-05-21T16:37:43;26.50;99.90
13223;DHT22;6676;45.192;5.722;2023-05-21T16:40:35;26.70;99.90
13223;DHT22;6676;45.192;5.722;2023-05-21T16:43:28;26.60;99.90
13223;DHT22;6676;45.192;5.722;2023-05-21T16:46:19;26.60;99.90
13223;DHT22;6676;45.192;5.722;2023-05-21T16:49:10;26.10;99.90
13223;DHT22;6676;45.192;5.722;2023-05-21T16:52:02;26.60;99.90
13223;DHT22;6676;45.192;5.722;2023-05-21T16:54:53;26.80;99.90
13223;DHT22;6676;45.192;5.722;2023-05-21T16:57:45;26.50;99.90
13223;DHT22;6676;45.192;5.722;2023-05-21T17:00:37;26.70;99.90
13223;DHT22;6676;45.192;5.722;2023-05-21T17:03:29;26.90;99.90
13223;DHT22;6676;45.192;5.722;2023-05-21T17:06:22;26.30;99.90
13223;DHT22;6676;45.192;5.722;2023-05-21T17:09:14;26.40;99.90
13223;DHT22;6676;45.192;5.722;2023-05-21T17:12:08;26.20;99.90
13223;DHT22;6676;45.192;5.722;2023-05-21T17:15:00;25.50;99.90
13223;DHT22;6676;45.192;5.722;2023-05-21T17:17:52;25.60;99.90
13223;DHT22;6676;45.192;5.722;2023-05-21T17:20:44;25.90;99.90
13223;DHT22;6676;45.192;5.722;2023-05-21T17:23:36;25.70;99.90
13223;DHT22;6676;45.192;5.722;2023-05-21T17:26:27;25.50;99.90
13223;DHT22;6676;45.192;5.722;2023-05-21T17:29:18;25.20;99.90
13223;DHT22;6676;45.192;5.722;2023-05-21T17:32:10;25.00;99.90
13223;DHT22;6676;45.192;5.722;2023-05-21T17:35:02;24.80;99.90
13223;DHT22;6676;45.192;5.722;2023-05-21T17:40:36;24.10;99.90
13223;DHT22;6676;45.192;5.722;2023-05-21T17:43:27;23.60;99.90
13223;DHT22;6676;45.192;5.722;2023-05-21T17:46:20;23.40;99.90
13223;DHT22;6676;45.192;5.722;2023-05-21T17:49:12;23.20;99.90
13223;DHT22;6676;45.192;5.722;2023-05-21T17:52:04;23.50;99.90
13223;DHT22;6676;45.192;5.722;2023-05-21T17:54:56;23.30;99.90
13223;DHT22;6676;45.192;5.722;2023-05-21T17:57:48;23.30;99.90
13223;DHT22;6676;45.192;5.722;2023-05-21T18:00:39;23.60;99.90
13223;DHT22;6676;45.192;5.722;2023-05-21T18:03:31;23.50;99.90
13223;DHT22;6676;45.192;5.722;2023-05-21T18:06:23;22.80;99.90
13223;DHT22;6676;45.192;5.722;2023-05-21T18:11:53;22.30;99.90
13223;DHT22;6676;45.192;5.722;2023-05-21T18:14:45;22.20;99.90
13223;DHT22;6676;45.192;5.722;2023-05-21T18:17:36;22.00;99.90
13223;DHT22;6676;45.192;5.722;2023-05-21T18:23:08;21.60;99.90
13223;DHT22;6676;45.192;5.722;2023-05-21T18:26:00;21.50;99.90
13223;DHT22;6676;45.192;5.722;2023-05-21T18:28:53;21.40;99.90
13223;DHT22;6676;45.192;5.722;2023-05-21T18:31:44;21.30;99.90
13223;DHT22;6676;45.192;5.722;2023-05-21T18:47:59;21.10;99.90
13223;DHT22;6676;45.192;5.722;2023-05-21T18:50:52;20.50;99.90
13223;DHT22;6676;45.192;5.722;2023-05-21T18:53:44;20.50;99.90
13223;DHT22;6676;45.192;5.722;2023-05-21T18:56:35;20.40;99.90
13223;DHT22;6676;45.192;5.722;2023-05-21T18:59:28;20.50;99.90
13223;DHT22;6676;45.192;5.722;2023-05-21T19:02:20;20.50;99.90
13223;DHT22;6676;45.192;5.722;2023-05-21T19:05:13;20.40;99.90
13223;DHT22;6676;45.192;5.722;2023-05-21T19:08:05;20.20;99.90
13223;DHT22;6676;45.192;5.722;2023-05-21T19:10:56;20.10;99.90
13223;DHT22;6676;45.192;5.722;2023-05-21T19:13:48;20.10;99.90
13223;DHT22;6676;45.192;5.722;2023-05-21T19:16:39;19.80;99.90
13223;DHT22;6676;45.192;5.722;2023-05-21T19:19:31;19.70;99.90
13223;DHT22;6676;45.192;5.722;2023-05-21T19:22:23;19.60;99.90
13223;DHT22;6676;45.192;5.722;2023-05-21T19:25:16;19.60;99.90